Time;durP1;ratioP1;P1;durP2;ratioP2;P2;SDS_P1;SDS_P2;PMS_P1;PMS_P2;Temp;Humidity;BMP_temperature;BMP_pressure;BME280_temperature;BME280_humidity;BME280_pressure;Samples;Min_cycle;Max_cycle;Signal;HPM_P1;HPM_P2
2021/07/08 00:00:12;;;;;;;;;;;;;;;;;;5079534;28;19929;-80
2021/07/08 00:02:39;;;;;;;;;;;;;;;;;;5073342;28;20435;-80
2021/07/08 00:05:08;;;;;;;;;;;;;;;;;;5084315;28;19943;-80
2021/07/08 00:07:35;;;;;;;;;;;;;;;;;;5093135;28;20023;-80
2021/07/08 00:10:02;;;;;;;;;;;;;;;;;;5092437;28;19972;-80
2021/07/08 00:12:29;;;;;;;;;;;;;;;;;;5090988;28;20681;-80
2021/07/08 00:14:58;;;;;;;;;;;;;;;;;;5087344;28;20010;-80
2021/07/08 00:17:25;;;;;;;;;;;;;;;;;;5087392;28;20027;-80
2021/07/08 00:19:52;;;;;;;;;;;;;;;;;;5086779;28;19924;-80
2021/07/08 00:22:19;;;;;;;;;;;;;;;;;;5083877;28;19963;-80
2021/07/08 00:24:47;;;;;;;;;;;;;;;;;;5092034;28;20014;-79
2021/07/08 00:27:14;;;;;;;;;;;;;;;;;;5092175;28;20394;-79
2021/07/08 00:29:41;;;;;;;;;;;;;;;;;;5092471;28;19924;-79
2021/07/08 00:32:08;;;;;;;;;;;;;;;;;;5093052;28;19963;-80
2021/07/08 00:34:35;;;;;;;;;;;;;;;;;;5092399;28;19930;-80
2021/07/08 00:37:02;;;;;;;;;;;;;;;;;;5092354;28;20018;-80
2021/07/08 00:39:29;;;;;;;;;;;;;;;;;;5086932;28;19928;-80
2021/07/08 00:41:56;;;;;;;;;;;;;;;;;;5080772;28;19932;-80
2021/07/08 00:44:25;;;;;;;;;;;;;;;;;;5085690;28;19963;-79
2021/07/08 00:46:52;;;;;;;;;;;;;;;;;;5087495;28;20015;-79
2021/07/08 00:49:19;;;;;;;;;;;;;;;;;;5091533;28;19967;-79
2021/07/08 00:51:46;;;;;;;;;;;;;;;;;;5090789;28;20383;-80
2021/07/08 00:54:14;;;;;;;;;;;;;;;;;;5081405;28;20007;-80
2021/07/08 00:56:41;;;;;;;;;;;;;;;;;;5091235;28;20740;-80
2021/07/08 00:59:08;;;;;;;;;;;;;;;;;;5091163;28;19967;-80
2021/07/08 01:01:35;;;;;;;;;;;;;;;;;;5091406;28;20023;-80
2021/07/08 01:04:03;;;;;;;;;;;;;;;;;;5093080;28;19928;-80
2021/07/08 01:06:30;;;;;;;;;;;;;;;;;;5092026;28;19968;-80
2021/07/08 01:08:58;;;;;;;;;;;;;;;;;;5091700;28;20014;-79
2021/07/08 01:11:25;;;;;;;;;;;;;;;;;;5082309;28;20389;-79
2021/07/08 01:13:52;;;;;;;;;;;;;;;;;;5083537;28;20031;-79
2021/07/08 01:16:19;;;;;;;;;;;;;;;;;;5089195;28;19924;-79
2021/07/08 01:18:46;;;;;;;;;;;;;;;;;;5081196;28;20030;-79
2021/07/08 01:21:13;;;;;;;;;;;;;;;;;;5091869;28;20018;-80
2021/07/08 01:23:40;;;;;;;;;;;;;;;;;;5094312;28;19924;-80
2021/07/08 01:26:08;;;;;;;;;;;;;;;;;;5078457;28;20415;-80
2021/07/08 01:28:35;;;;;;;;;;;;;;;;;;5092613;28;19959;-80
2021/07/08 01:31:03;;;;;;;;;;;;;;;;;;5095474;28;19935;-80
2021/07/08 01:33:30;;;;;;;;;;;;;;;;;;5081975;28;20407;-80
2021/07/08 01:35:59;;;;;;;;;;;;;;;;;;5095596;28;19981;-80
2021/07/08 01:38:26;;;;;;;;;;;;;;;;;;5088116;28;20038;-80
2021/07/08 01:40:53;;;;;;;;;;;;;;;;;;5095615;28;19959;-80
2021/07/08 01:43:20;;;;;;;;;;;;;;;;;;5092178;28;19982;-80
2021/07/08 01:45:47;;;;;;;;;;;;;;;;;;5091367;28;20018;-80
2021/07/08 01:48:14;;;;;;;;;;;;;;;;;;5092263;28;19996;-79
2021/07/08 01:53:45;;;;;;;;;;;;;;;;;;5090918;28;20494;-80
2021/07/08 01:56:12;;;;;;;;;;;;;;;;;;5095318;28;20534;-79
2021/07/08 01:58:39;;;;;;;;;;;;;;;;;;5093947;28;20019;-79
2021/07/08 02:01:11;;;;;;;;;;;;;;;;;;5093868;28;20632;-80
2021/07/08 02:03:38;;;;;;;;;;;;;;;;;;5091026;28;19925;-80
2021/07/08 02:06:05;;;;;;;;;;;;;;;;;;5088888;28;19979;-80
2021/07/08 02:08:33;;;;;;;;;;;;;;;;;;5095203;28;19958;-80
2021/07/08 02:11:09;;;;;;;;;;;;;;;;;;5093636;28;20353;-79
2021/07/08 02:13:36;;;;;;;;;;;;;;;;;;5078415;28;19979;-80
2021/07/08 02:16:03;;;;;;;;;;;;;;;;;;5092221;28;20209;-80
2021/07/08 02:18:30;;;;;;;;;;;;;;;;;;5086444;28;19925;-80
2021/07/08 02:20:57;;;;;;;;;;;;;;;;;;5094005;28;19964;-80
2021/07/08 02:23:24;;;;;;;;;;;;;;;;;;5093456;28;20019;-80
2021/07/08 02:25:51;;;;;;;;;;;;;;;;;;5091638;28;19924;-80
2021/07/08 02:28:18;;;;;;;;;;;;;;;;;;5095073;28;19924;-80
2021/07/08 02:30:45;;;;;;;;;;;;;;;;;;5094874;28;19947;-80
2021/07/08 02:33:15;;;;;;;;;;;;;;;;;;5093238;28;19978;-80
2021/07/08 02:35:42;;;;;;;;;;;;;;;;;;5083451;28;20015;-80
2021/07/08 02:38:09;;;;;;;;;;;;;;;;;;5093263;28;19976;-80
2021/07/08 02:40:38;;;;;;;;;;;;;;;;;;5088510;28;19975;-80
2021/07/08 02:43:06;;;;;;;;;;;;;;;;;;5093502;28;19928;-80
2021/07/08 02:45:34;;;;;;;;;;;;;;;;;;5085500;28;19970;-80
2021/07/08 02:48:01;;;;;;;;;;;;;;;;;;5089646;28;19928;-80
2021/07/08 02:50:30;;;;;;;;;;;;;;;;;;5085505;28;20389;-80
2021/07/08 02:52:57;;;;;;;;;;;;;;;;;;5078473;28;20062;-80
2021/07/08 02:55:24;;;;;;;;;;;;;;;;;;5092558;28;19931;-80
2021/07/08 02:57:51;;;;;;;;;;;;;;;;;;5090206;28;20026;-80
2021/07/08 03:00:22;;;;;;;;;;;;;;;;;;5078753;28;19928;-80
2021/07/08 03:02:50;;;;;;;;;;;;;;;;;;5073319;28;20143;-80
2021/07/08 03:05:17;;;;;;;;;;;;;;;;;;5091596;28;19932;-80
2021/07/08 03:07:44;;;;;;;;;;;;;;;;;;5093658;28;20011;-80
2021/07/08 03:10:11;;;;;;;;;;;;;;;;;;5093611;28;20453;-80
2021/07/08 03:12:38;;;;;;;;;;;;;;;;;;5090488;28;20341;-80
2021/07/08 03:15:05;;;;;;;;;;;;;;;;;;5088669;28;20015;-80
2021/07/08 03:17:42;;;;;;;;;;;;;;;;;;5088703;28;19979;-80
2021/07/08 03:20:12;;;;;;;;;;;;;;;;;;5086865;28;19924;-80
2021/07/08 03:22:39;;;;;;;;;;;;;;;;;;5073552;28;20002;-80
2021/07/08 03:25:06;;;;;;;;;;;;;;;;;;5085481;28;20389;-80
2021/07/08 03:27:33;;;;;;;;;;;;;;;;;;5093391;28;20017;-80
2021/07/08 03:30:00;;;;;;;;;;;;;;;;;;5091935;28;20007;-80
2021/07/08 03:32:39;;;;;;;;;;;;;;;;;;5073781;28;19954;-80
2021/07/08 03:35:06;;;;;;;;;;;;;;;;;;5073621;28;19931;-80
2021/07/08 03:37:33;;;;;;;;;;;;;;;;;;5081853;28;20304;-80
2021/07/08 03:40:00;;;;;;;;;;;;;;;;;;5084811;28;19924;-79
2021/07/08 03:42:27;;;;;;;;;;;;;;;;;;5085627;28;20020;-80
2021/07/08 03:45:10;;;;;;;;;;;;;;;;;;5092664;28;20030;-80
2021/07/08 03:47:37;;;;;;;;;;;;;;;;;;5093453;28;20377;-80
2021/07/08 03:50:04;;;;;;;;;;;;;;;;;;5093251;28;20002;-79
2021/07/08 03:52:31;;;;;;;;;;;;;;;;;;5072593;28;19928;-79
2021/07/08 03:54:58;;;;;;;;;;;;;;;;;;5086169;28;20443;-79
2021/07/08 03:57:26;;;;;;;;;;;;;;;;;;5086017;28;19999;-79
2021/07/08 03:59:54;;;;;;;;;;;;;;;;;;5085853;28;20334;-79
2021/07/08 04:02:21;;;;;;;;;;;;;;;;;;5089870;28;19971;-79
2021/07/08 04:04:48;;;;;;;;;;;;;;;;;;5091879;28;19928;-79
2021/07/08 04:07:15;;;;;;;;;;;;;;;;;;5081374;28;19972;-79
2021/07/08 04:09:42;;;;;;;;;;;;;;;;;;5086345;28;19924;-80
2021/07/08 04:12:09;;;;;;;;;;;;;;;;;;5089023;28;20342;-79
2021/07/08 04:14:37;;;;;;;;;;;;;;;;;;5080798;28;19981;-79
2021/07/08 04:17:04;;;;;;;;;;;;;;;;;;5078393;28;19974;-79
2021/07/08 04:19:32;;;;;;;;;;;;;;;;;;5079839;28;19983;-79
2021/07/08 04:21:59;;;;;;;;;;;;;;;;;;5085811;28;19963;-79
2021/07/08 04:24:26;;;;;;;;;;;;;;;;;;5089624;28;20023;-79
2021/07/08 04:26:53;;;;;;;;;;;;;;;;;;5090623;28;20006;-79
2021/07/08 04:29:20;;;;;;;;;;;;;;;;;;5090354;28;20026;-79
2021/07/08 04:31:47;;;;;;;;;;;;;;;;;;5089738;28;20724;-79
2021/07/08 04:34:16;;;;;;;;;;;;;;;;;;5091067;28;21339;-79
2021/07/08 04:36:43;;;;;;;;;;;;;;;;;;5079964;28;20369;-80
2021/07/08 04:39:10;;;;;;;;;;;;;;;;;;5083109;28;19971;-80
2021/07/08 04:41:37;;;;;;;;;;;;;;;;;;5086488;28;19978;-80
2021/07/08 04:44:04;;;;;;;;;;;;;;;;;;5084319;28;20026;-79
2021/07/08 04:46:34;;;;;;;;;;;;;;;;;;5080176;28;20019;-80
2021/07/08 04:49:01;;;;;;;;;;;;;;;;;;5080724;28;19924;-80
2021/07/08 04:51:28;;;;;;;;;;;;;;;;;;5081458;28;20678;-80
2021/07/08 04:53:55;;;;;;;;;;;;;;;;;;5083529;28;20031;-80
2021/07/08 04:56:24;;;;;;;;;;;;;;;;;;5086044;28;19924;-80
2021/07/08 04:58:51;;;;;;;;;;;;;;;;;;5085866;28;20015;-80
2021/07/08 05:01:19;;;;;;;;;;;;;;;;;;5079330;28;19963;-79
2021/07/08 05:03:46;;;;;;;;;;;;;;;;;;5083252;28;19928;-81
2021/07/08 05:06:19;;;;;;;;;;;;;;;;;;5088557;28;19970;-82
2021/07/08 05:08:46;;;;;;;;;;;;;;;;;;5079656;28;20011;-88
2021/07/08 05:11:13;;;;;;;;;;;;;;;;;;5091010;28;20019;-83
2021/07/08 05:13:40;;;;;;;;;;;;;;;;;;5082364;28;19928;-83
2021/07/08 05:16:09;;;;;;;;;;;;;;;;;;5083890;28;19935;-84
2021/07/08 05:18:51;;;;;;;;;;;;;;;;;;5087720;28;20021;-84
2021/07/08 05:21:18;;;;;;;;;;;;;;;;;;5091195;28;20019;-80
2021/07/08 05:23:45;;;;;;;;;;;;;;;;;;5088271;28;21619;-79
2021/07/08 05:26:13;;;;;;;;;;;;;;;;;;5084999;28;20695;-80
2021/07/08 05:28:40;;;;;;;;;;;;;;;;;;5085923;28;20019;-80
2021/07/08 05:31:07;;;;;;;;;;;;;;;;;;5084718;28;19958;-80
2021/07/08 05:33:34;;;;;;;;;;;;;;;;;;5077783;28;20471;-77
2021/07/08 05:36:01;;;;;;;;;;;;;;;;;;5084518;28;20019;-81
2021/07/08 05:38:28;;;;;;;;;;;;;;;;;;5088902;28;19967;-82
2021/07/08 05:40:56;;;;;;;;;;;;;;;;;;5073863;28;19989;-82
2021/07/08 05:43:23;;;;;;;;;;;;;;;;;;5090938;28;20543;-82
2021/07/08 05:45:50;;;;;;;;;;;;;;;;;;5082609;28;19924;-82
2021/07/08 05:48:19;;;;;;;;;;;;;;;;;;5082977;28;20018;-82
2021/07/08 05:50:46;;;;;;;;;;;;;;;;;;5090374;28;19924;-83
2021/07/08 05:53:13;;;;;;;;;;;;;;;;;;5090732;28;20024;-82
2021/07/08 05:55:40;;;;;;;;;;;;;;;;;;5091363;28;20563;-82
2021/07/08 05:58:07;;;;;;;;;;;;;;;;;;5090254;28;20038;-82
2021/07/08 06:00:34;;;;;;;;;;;;;;;;;;5091419;28;19978;-82
2021/07/08 06:03:07;;;;;;;;;;;;;;;;;;5091682;28;19928;-82
2021/07/08 06:05:34;;;;;;;;;;;;;;;;;;5073065;28;20025;-83
2021/07/08 06:08:02;;;;;;;;;;;;;;;;;;5084764;28;19931;-83
2021/07/08 06:10:29;;;;;;;;;;;;;;;;;;5094636;28;20014;-83
2021/07/08 06:12:56;;;;;;;;;;;;;;;;;;5094522;28;20474;-83
2021/07/08 06:15:24;;;;;;;;;;;;;;;;;;5094947;28;19928;-82
2021/07/08 06:17:51;;;;;;;;;;;;;;;;;;5075796;28;19964;-82
2021/07/08 06:20:18;;;;;;;;;;;;;;;;;;5080809;28;20023;-82
2021/07/08 06:22:47;;;;;;;;;;;;;;;;;;5094064;28;19932;-82
2021/07/08 06:25:14;;;;;;;;;;;;;;;;;;5093680;28;19924;-82
2021/07/08 06:27:42;;;;;;;;;;;;;;;;;;5094013;28;19959;-82
2021/07/08 06:30:09;;;;;;;;;;;;;;;;;;5093916;28;19934;-82
2021/07/08 06:32:36;;;;;;;;;;;;;;;;;;5095124;28;19964;-82
2021/07/08 06:35:06;;;;;;;;;;;;;;;;;;5078472;28;19928;-82
2021/07/08 06:37:33;;;;;;;;;;;;;;;;;;5075066;28;19925;-82
2021/07/08 06:40:00;;;;;;;;;;;;;;;;;;5073301;28;19928;-82
2021/07/08 06:42:27;;;;;;;;;;;;;;;;;;5073380;28;19931;-82
2021/07/08 06:44:55;;;;;;;;;;;;;;;;;;5083361;28;19955;-82
2021/07/08 06:47:25;;;;;;;;;;;;;;;;;;5085067;28;19954;-82
2021/07/08 06:49:52;;;;;;;;;;;;;;;;;;5093730;28;19924;-82
2021/07/08 06:52:19;;;;;;;;;;;;;;;;;;5094038;28;19950;-82
2021/07/08 06:54:46;;;;;;;;;;;;;;;;;;5082536;28;20020;-82
2021/07/08 06:57:14;;;;;;;;;;;;;;;;;;5080206;28;20388;-82
2021/07/08 06:59:41;;;;;;;;;;;;;;;;;;5093167;28;20018;-82
2021/07/08 07:02:08;;;;;;;;;;;;;;;;;;5089476;28;21183;-82
2021/07/08 07:04:35;;;;;;;;;;;;;;;;;;5093895;28;20023;-81
2021/07/08 07:07:02;;;;;;;;;;;;;;;;;;5094038;28;19967;-82
2021/07/08 07:09:30;;;;;;;;;;;;;;;;;;5093385;28;19975;-82
2021/07/08 07:11:57;;;;;;;;;;;;;;;;;;5093527;28;20003;-82
2021/07/08 07:14:24;;;;;;;;;;;;;;;;;;5088968;28;20543;-82
2021/07/08 07:16:51;;;;;;;;;;;;;;;;;;5090137;28;20018;-82
2021/07/08 07:19:18;;;;;;;;;;;;;;;;;;5071122;28;19929;-82
2021/07/08 07:21:45;;;;;;;;;;;;;;;;;;5074359;28;19925;-82
2021/07/08 07:24:14;;;;;;;;;;;;;;;;;;5072466;28;19970;-83
2021/07/08 07:26:41;;;;;;;;;;;;;;;;;;5072517;28;19964;-82
2021/07/08 07:29:08;;;;;;;;;;;;;;;;;;5072498;28;20011;-82
2021/07/08 07:31:35;;;;;;;;;;;;;;;;;;5072614;28;19964;-82
2021/07/08 07:34:03;;;;;;;;;;;;;;;;;;5075977;28;19924;-82
2021/07/08 07:36:31;;;;;;;;;;;;;;;;;;5093454;28;20655;-82
2021/07/08 07:38:58;;;;;;;;;;;;;;;;;;5092055;28;20007;-82
2021/07/08 07:41:25;;;;;;;;;;;;;;;;;;5092408;28;19960;-81
2021/07/08 07:43:52;;;;;;;;;;;;;;;;;;5092196;28;19953;-82
2021/07/08 07:46:19;;;;;;;;;;;;;;;;;;5093442;28;19985;-81
2021/07/08 07:48:46;;;;;;;;;;;;;;;;;;5093412;28;19924;-82
2021/07/08 07:51:13;;;;;;;;;;;;;;;;;;5093460;28;20019;-82
2021/07/08 07:53:40;;;;;;;;;;;;;;;;;;5093486;28;20019;-82
2021/07/08 07:56:07;;;;;;;;;;;;;;;;;;5093258;28;20043;-82
2021/07/08 07:58:34;;;;;;;;;;;;;;;;;;5092746;28;20007;-82
2021/07/08 08:01:02;;;;;;;;;;;;;;;;;;5091851;28;20015;-82
2021/07/08 08:03:29;;;;;;;;;;;;;;;;;;5093007;28;19928;-82
2021/07/08 08:08:42;;;;;;;;;;;;;;;;;;5092517;28;19928;-81
2021/07/08 08:11:10;;;;;;;;;;;;;;;;;;5092186;28;19977;-82
2021/07/08 08:13:39;;;;;;;;;;;;;;;;;;5091270;28;20620;-82
2021/07/08 08:16:07;;;;;;;;;;;;;;;;;;5091200;28;20055;-82
2021/07/08 08:18:35;;;;;;;;;;;;;;;;;;5092436;28;19982;-82
2021/07/08 08:21:06;;;;;;;;;;;;;;;;;;5092826;28;19928;-82
2021/07/08 08:23:34;;;;;;;;;;;;;;;;;;5090754;28;19964;-81
2021/07/08 08:26:01;;;;;;;;;;;;;;;;;;5091525;28;19935;-82
2021/07/08 08:28:28;;;;;;;;;;;;;;;;;;5081186;28;20408;-83
2021/07/08 08:30:55;;;;;;;;;;;;;;;;;;5070441;28;20019;-82
2021/07/08 08:33:22;;;;;;;;;;;;;;;;;;5069922;28;19971;-82
2021/07/08 08:35:49;;;;;;;;;;;;;;;;;;5069056;28;19924;-82
2021/07/08 08:38:16;;;;;;;;;;;;;;;;;;5070242;28;20636;-82
2021/07/08 08:40:45;;;;;;;;;;;;;;;;;;5070227;28;19990;-83
2021/07/08 08:43:12;;;;;;;;;;;;;;;;;;5071591;28;19928;-82
2021/07/08 08:45:42;;;;;;;;;;;;;;;;;;5070253;28;19934;-82
2021/07/08 08:48:10;;;;;;;;;;;;;;;;;;5083965;28;20035;-82
2021/07/08 08:50:37;;;;;;;;;;;;;;;;;;5091859;28;19982;-82
2021/07/08 08:53:04;;;;;;;;;;;;;;;;;;5086698;28;20463;-82
2021/07/08 08:55:34;;;;;;;;;;;;;;;;;;5071412;28;20018;-82
2021/07/08 08:58:01;;;;;;;;;;;;;;;;;;5070304;28;19963;-82
2021/07/08 09:00:30;;;;;;;;;;;;;;;;;;5071692;28;20019;-82
2021/07/08 09:02:57;;;;;;;;;;;;;;;;;;5072029;28;19963;-82
2021/07/08 09:05:24;;;;;;;;;;;;;;;;;;5084780;28;19975;-82
2021/07/08 09:07:57;;;;;;;;;;;;;;;;;;5091284;28;20360;-82
2021/07/08 09:10:24;;;;;;;;;;;;;;;;;;5090130;28;19928;-82
2021/07/08 09:12:51;;;;;;;;;;;;;;;;;;5090066;28;19975;-82
2021/07/08 09:15:18;;;;;;;;;;;;;;;;;;5091271;28;19924;-82
2021/07/08 09:17:45;;;;;;;;;;;;;;;;;;5091348;28;19979;-82
2021/07/08 09:20:13;;;;;;;;;;;;;;;;;;5090863;28;20441;-82
2021/07/08 09:22:41;;;;;;;;;;;;;;;;;;5089819;28;20031;-82
2021/07/08 09:25:08;;;;;;;;;;;;;;;;;;5089328;28;20030;-82
2021/07/08 09:27:35;;;;;;;;;;;;;;;;;;5076077;28;19924;-82
2021/07/08 09:30:02;;;;;;;;;;;;;;;;;;5069547;28;19982;-82
2021/07/08 09:32:30;;;;;;;;;;;;;;;;;;5070080;28;19955;-82
2021/07/08 09:34:57;;;;;;;;;;;;;;;;;;5069510;28;20403;-82
2021/07/08 09:37:25;;;;;;;;;;;;;;;;;;5083761;28;19931;-82
2021/07/08 09:39:52;;;;;;;;;;;;;;;;;;5090638;28;19934;-82
2021/07/08 09:42:19;;;;;;;;;;;;;;;;;;5089987;28;20023;-82
2021/07/08 09:44:49;;;;;;;;;;;;;;;;;;5093983;28;19970;-82
2021/07/08 09:47:16;;;;;;;;;;;;;;;;;;5085676;28;20755;-82
2021/07/08 09:49:45;;;;;;;;;;;;;;;;;;5074678;28;20428;-82
2021/07/08 09:52:12;;;;;;;;;;;;;;;;;;5074769;28;19962;-81
2021/07/08 09:55:31;;;;;;;;;;;;;;;;;;5074163;28;20274;-82
2021/07/08 09:57:30;;;;;;;;;;;;;;;;;;5068840;28;20094;-81
2021/07/08 09:59:57;;;;;;;;;;;;;;;;;;5074402;28;20023;-81
2021/07/08 10:02:24;;;;;;;;;;;;;;;;;;5074275;28;19924;-81
2021/07/08 10:04:51;;;;;;;;;;;;;;;;;;5074111;28;20023;-81
2021/07/08 10:07:18;;;;;;;;;;;;;;;;;;5073911;28;20499;-82
2021/07/08 10:09:45;;;;;;;;;;;;;;;;;;5072714;28;19971;-82
2021/07/08 10:12:12;;;;;;;;;;;;;;;;;;5073936;28;19924;-81
2021/07/08 10:14:40;;;;;;;;;;;;;;;;;;5076257;28;20690;-82
2021/07/08 10:17:07;;;;;;;;;;;;;;;;;;5086107;28;20376;-81
2021/07/08 10:19:34;;;;;;;;;;;;;;;;;;5094182;28;19972;-81
2021/07/08 10:22:01;;;;;;;;;;;;;;;;;;5093147;28;19975;-82
2021/07/08 10:24:29;;;;;;;;;;;;;;;;;;5093065;28;19982;-83
2021/07/08 10:26:57;;;;;;;;;;;;;;;;;;5092706;28;20019;-82
2021/07/08 10:29:24;;;;;;;;;;;;;;;;;;5092783;28;20023;-82
2021/07/08 10:31:51;;;;;;;;;;;;;;;;;;5092854;28;19970;-82
2021/07/08 10:34:18;;;;;;;;;;;;;;;;;;5092643;28;19924;-82
2021/07/08 10:36:45;;;;;;;;;;;;;;;;;;5092603;28;20593;-81
2021/07/08 10:39:14;;;;;;;;;;;;;;;;;;5093597;28;20355;-81
2021/07/08 10:41:41;;;;;;;;;;;;;;;;;;5093925;28;19976;-82
2021/07/08 10:44:08;;;;;;;;;;;;;;;;;;5093519;28;19979;-82
2021/07/08 10:46:55;;;;;;;;;;;;;;;;;;5092923;28;19928;-81
2021/07/08 10:49:22;;;;;;;;;;;;;;;;;;5092389;28;20332;-82
2021/07/08 10:51:52;;;;;;;;;;;;;;;;;;5093945;28;20669;-81
2021/07/08 10:54:20;;;;;;;;;;;;;;;;;;5090871;28;19932;-82
2021/07/08 10:56:47;;;;;;;;;;;;;;;;;;5093453;28;20011;-82
2021/07/08 10:59:14;;;;;;;;;;;;;;;;;;5092956;28;19928;-81
2021/07/08 11:01:42;;;;;;;;;;;;;;;;;;5093711;28;19932;-82
2021/07/08 11:04:09;;;;;;;;;;;;;;;;;;5093812;28;19924;-81
2021/07/08 11:06:37;;;;;;;;;;;;;;;;;;5093702;28;20023;-82
2021/07/08 11:09:05;;;;;;;;;;;;;;;;;;5093662;28;20023;-81
2021/07/08 11:11:33;;;;;;;;;;;;;;;;;;5092658;28;19963;-81
2021/07/08 11:14:00;;;;;;;;;;;;;;;;;;5092375;28;19932;-82
2021/07/08 11:16:27;;;;;;;;;;;;;;;;;;5092268;28;20035;-80
2021/07/08 11:18:54;;;;;;;;;;;;;;;;;;5092349;28;19956;-82
2021/07/08 11:21:22;;;;;;;;;;;;;;;;;;5093136;28;19968;-81
2021/07/08 11:23:50;;;;;;;;;;;;;;;;;;5087680;28;20014;-81
2021/07/08 11:26:19;;;;;;;;;;;;;;;;;;5091215;28;20012;-81
2021/07/08 11:28:46;;;;;;;;;;;;;;;;;;5072125;28;19924;-83
2021/07/08 11:31:35;;;;;;;72.13;9.27;;;;;;;;;;5124198;27;20326;-80
2021/07/08 11:34:04;;;;;;;7.70;3.40;;;;;;;;;;5105126;28;20105;-80
2021/07/08 11:36:37;;;;;;;3.17;2.85;;;;;;;;;;5107661;28;20054;-80
2021/07/08 11:39:06;;;;;;;4.07;2.83;;;;;;;;;;5106148;28;20139;-80
2021/07/08 11:41:33;;;;;;;3.08;2.78;;;;;;;;;;5105412;28;20136;-79
2021/07/08 11:44:04;;;;;;;8.40;2.95;;;;;;;;;;5106703;28;20051;-80
2021/07/08 11:46:33;;;;;;;4.97;3.20;;;;;;;;;;5107113;28;20091;-80
2021/07/08 11:49:00;;;;;;;4.63;3.00;;;;;;;;;;5099405;28;20048;-81
2021/07/08 11:51:29;;;;;;;9.57;3.83;;;;;;;;;;5086947;28;20524;-81
2021/07/08 11:53:56;;;;;;;5.78;3.08;;;;;;;;;;5091112;28;20130;-80
2021/07/08 11:56:24;;;;;;;4.90;2.88;;;;;;;;;;5106621;28;20086;-80
2021/07/08 11:58:52;;;;;;;7.57;3.63;;;;;;;;;;5095469;28;20044;-80
2021/07/08 12:01:19;;;;;;;7.25;3.88;;;;;;;;;;5090173;28;20476;-80
2021/07/08 12:03:48;;;;;;;8.68;3.97;;;;;;;;;;5106180;28;20083;-81
2021/07/08 12:06:19;;;;;;;5.43;3.15;;;;;;;;;;5105678;28;20056;-80
2021/07/08 12:08:53;;;;;;;6.68;3.40;;;;;;;;;;5086055;28;20048;-81
2021/07/08 12:11:31;;;;;;;5.95;4.00;;;;;;;;;;5091015;28;20546;-81
2021/07/08 12:14:03;;;;;;;3.92;2.72;;;;;;;;;;5086743;28;20067;-81
2021/07/08 12:16:33;;;;;;;6.50;3.72;;;;;;;;;;5088655;28;20469;-79
2021/07/08 12:19:19;;;;;;;9.90;3.35;;;;;;;;;;5088186;28;20080;-79
2021/07/08 12:21:47;;;;;;;7.53;3.97;;;;;;;;;;5084883;28;20135;-79
2021/07/08 12:24:24;;;;;;;4.65;3.50;;;;;;;;;;5085124;28;20471;-79
2021/07/08 12:26:54;;;;;;;6.35;3.30;;;;;;;;;;5084685;28;20131;-80
2021/07/08 12:29:32;;;;;;;4.03;3.17;;;;;;;;;;5084914;28;20079;-80
2021/07/08 12:32:03;;;;;;;5.40;3.60;;;;;;;;;;5092663;28;20062;-80
2021/07/08 12:34:51;;;;;;;3.88;3.53;;;;;;;;;;5105724;28;20044;-80
2021/07/08 12:37:20;;;;;;;7.50;3.38;;;;;;;;;;5105659;28;20055;-80
2021/07/08 12:40:03;;;;;;;7.60;3.33;;;;;;;;;;5105355;28;20063;-80
2021/07/08 12:42:34;;;;;;;6.32;3.38;;;;;;;;;;5093119;28;20052;-80
2021/07/08 12:45:06;;;;;;;6.28;2.80;;;;;;;;;;5091857;28;20077;-81
2021/07/08 12:47:34;;;;;;;3.25;2.95;;;;;;;;;;5092600;28;20054;-80
2021/07/08 12:50:04;;;;;;;12.60;4.82;;;;;;;;;;5093353;28;20048;-79
2021/07/08 12:52:31;;;;;;;9.60;3.53;;;;;;;;;;5092333;28;20048;-80
2021/07/08 12:54:58;;;;;;;8.00;3.20;;;;;;;;;;5089925;28;20131;-80
2021/07/08 12:57:26;;;;;;;19.60;3.72;;;;;;;;;;5091416;28;20051;-80
2021/07/08 12:59:58;;;;;;;4.63;2.78;;;;;;;;;;5090958;28;20496;-80
2021/07/08 13:02:27;;;;;;;10.77;3.47;;;;;;;;;;5091762;28;20733;-80
2021/07/08 13:05:06;;;;;;;5.13;3.00;;;;;;;;;;5091511;28;20048;-80
2021/07/08 13:07:35;;;;;;;4.55;3.00;;;;;;;;;;5071076;28;20066;-80
2021/07/08 13:10:05;;;;;;;5.30;3.10;;;;;;;;;;5071111;28;20510;-80
2021/07/08 13:12:33;;;;;;;2.72;2.47;;;;;;;;;;5072691;28;20072;-80
2021/07/08 13:15:01;;;;;;;3.63;2.70;;;;;;;;;;5074771;28;20044;-80
2021/07/08 13:17:30;;;;;;;8.30;3.00;;;;;;;;;;5079027;28;20138;-80
2021/07/08 13:20:08;;;;;;;3.80;2.65;;;;;;;;;;5090636;28;20125;-80
2021/07/08 13:22:37;;;;;;;3.10;2.70;;;;;;;;;;5090435;28;20052;-80
2021/07/08 13:25:14;;;;;;;5.43;2.88;;;;;;;;;;5091730;28;20123;-79
2021/07/08 13:27:42;;;;;;;7.45;2.78;;;;;;;;;;5091340;28;20127;-79
2021/07/08 13:30:21;;;;;;;6.20;2.58;;;;;;;;;;5090234;28;20130;-79
2021/07/08 13:33:00;;;;;;;4.50;2.40;;;;;;;;;;5091967;28;20075;-80
2021/07/08 13:35:38;;;;;;;6.93;2.53;;;;;;;;;;5090797;28;20048;-80
2021/07/08 13:38:18;;;;;;;4.57;2.65;;;;;;;;;;5079088;28;20775;-80
2021/07/08 13:40:59;;;;;;;4.68;2.78;;;;;;;;;;5071319;28;20127;-80
2021/07/08 13:43:45;;;;;;;4.75;2.92;;;;;;;;;;5070441;28;20095;-80
2021/07/08 13:46:17;;;;;;;5.70;3.10;;;;;;;;;;5069395;28;20044;-79
2021/07/08 13:48:46;;;;;;;7.85;3.30;;;;;;;;;;5071339;28;20044;-79
2021/07/08 13:51:14;;;;;;;8.55;2.70;;;;;;;;;;5069555;28;20822;-80
2021/07/08 13:53:41;;;;;;;6.22;3.38;;;;;;;;;;5069930;28;20485;-80
2021/07/08 13:56:14;;;;;;;2.67;2.38;;;;;;;;;;5070375;28;20566;-80
2021/07/08 13:58:42;;;;;;;5.70;2.90;;;;;;;;;;5070955;28;20091;-80
2021/07/08 14:01:09;;;;;;;7.30;3.30;;;;;;;;;;5090010;28;20143;-80
2021/07/08 14:03:36;;;;;;;5.60;3.60;;;;;;;;;;5091553;28;20390;-80
2021/07/08 14:06:04;;;;;;;5.55;3.35;;;;;;;;;;5090621;28;20060;-80
2021/07/08 14:08:35;;;;;;;5.00;3.15;;;;;;;;;;5089640;28;20463;-80
2021/07/08 14:11:02;;;;;;;8.70;3.33;;;;;;;;;;5090851;28;20079;-80
2021/07/08 14:13:31;;;;;;;9.88;3.22;;;;;;;;;;5090212;28;20044;-79
2021/07/08 14:16:00;;;;;;;11.32;3.83;;;;;;;;;;5090272;28;20048;-81
2021/07/08 14:18:28;;;;;;;5.63;3.22;;;;;;;;;;5076177;28;20106;-81
2021/07/08 14:20:55;;;;;;;9.32;3.40;;;;;;;;;;5079001;28;20135;-81
2021/07/08 14:23:23;;;;;;;4.18;2.90;;;;;;;;;;5086386;28;20132;-81
2021/07/08 14:25:51;;;;;;;7.07;3.38;;;;;;;;;;5069293;28;20147;-80
2021/07/08 14:28:18;;;;;;;3.70;2.70;;;;;;;;;;5070435;28;20139;-81
2021/07/08 14:30:48;;;;;;;3.15;2.85;;;;;;;;;;5074053;28;20070;-80
2021/07/08 14:33:16;;;;;;;4.47;2.95;;;;;;;;;;5072588;28;20081;-80
2021/07/08 14:35:45;;;;;;;4.07;2.90;;;;;;;;;;5088723;28;20054;-80
2021/07/08 14:38:12;;;;;;;11.98;2.80;;;;;;;;;;5088730;28;20091;-80
2021/07/08 14:40:40;;;;;;;6.75;3.90;;;;;;;;;;5088556;28;20743;-80
2021/07/08 14:43:32;;;;;;;8.50;3.10;;;;;;;;;;5084878;28;20067;-80
2021/07/08 14:46:05;;;;;;;6.75;3.00;;;;;;;;;;5069665;28;20481;-80
2021/07/08 14:48:32;;;;;;;6.70;3.60;;;;;;;;;;5071033;28;20140;-81
2021/07/08 14:51:00;;;;;;;6.53;2.67;;;;;;;;;;5069763;28;20049;-81
2021/07/08 14:53:27;;;;;;;4.50;2.55;;;;;;;;;;5074782;28;20128;-81
2021/07/08 14:55:54;;;;;;;6.93;3.92;;;;;;;;;;5088274;28;20083;-80
2021/07/08 14:58:21;;;;;;;3.50;2.47;;;;;;;;;;5088717;28;20102;-81
2021/07/08 15:00:49;;;;;;;2.45;2.25;;;;;;;;;;5077099;28;20080;-80
2021/07/08 15:03:16;;;;;;;2.83;2.10;;;;;;;;;;5068014;28;20143;-80
2021/07/08 15:05:44;;;;;;;2.75;2.33;;;;;;;;;;5067441;28;20493;-81
2021/07/08 15:08:13;;;;;;;1.92;1.77;;;;;;;;;;5076530;28;20152;-81
2021/07/08 15:10:40;;;;;;;5.63;2.20;;;;;;;;;;5088388;28;20044;-80
2021/07/08 15:13:07;;;;;;;5.03;2.10;;;;;;;;;;5089796;28;20131;-81
2021/07/08 15:15:35;;;;;;;5.68;2.72;;;;;;;;;;5076468;28;20074;-80
2021/07/08 15:18:06;;;;;;;7.63;2.50;;;;;;;;;;5062854;28;20052;-80
2021/07/08 15:20:34;;;;;;;5.00;2.13;;;;;;;;;;5066435;28;20091;-80
2021/07/08 15:23:01;;;;;;;3.92;2.50;;;;;;;;;;5068563;28;20744;-80
2021/07/08 15:25:28;;;;;;;4.07;2.42;;;;;;;;;;5067621;28;20639;-80
2021/07/08 15:28:05;;;;;;;2.10;1.60;;;;;;;;;;5068002;28;20075;-80
2021/07/08 15:30:32;;;;;;;4.88;1.83;;;;;;;;;;5067535;28;20123;-80
2021/07/08 15:32:59;;;;;;;3.42;2.03;;;;;;;;;;5069188;28;20106;-80
2021/07/08 15:35:27;;;;;;;4.20;1.77;;;;;;;;;;5075522;28;20554;-80
2021/07/08 15:37:54;;;;;;;8.75;2.55;;;;;;;;;;5085759;28;20105;-80
2021/07/08 15:40:21;;;;;;;3.90;1.92;;;;;;;;;;5067547;28;20097;-80
2021/07/08 15:42:48;;;;;;;5.32;1.80;;;;;;;;;;5067554;28;20103;-80
2021/07/08 15:45:15;;;;;;;3.42;1.90;;;;;;;;;;5067368;28;20532;-81
2021/07/08 15:47:43;;;;;;;1.83;1.50;;;;;;;;;;5079784;28;20086;-80
2021/07/08 15:50:10;;;;;;;3.90;1.52;;;;;;;;;;5084640;28;20778;-81
2021/07/08 15:52:37;;;;;;;6.18;1.85;;;;;;;;;;5086023;28;20136;-81
2021/07/08 15:55:05;;;;;;;3.40;1.58;;;;;;;;;;5083309;28;20787;-80
2021/07/08 15:57:33;;;;;;;3.72;1.30;;;;;;;;;;5067489;28;20048;-80
2021/07/08 16:00:01;;;;;;;1.73;1.05;;;;;;;;;;5067795;28;20052;-80
2021/07/08 16:02:36;;;;;;;3.08;1.73;;;;;;;;;;5070392;28;20097;-80
2021/07/08 16:05:08;;;;;;;8.52;1.85;;;;;;;;;;5088376;28;20058;-81
2021/07/08 16:07:35;;;;;;;1.55;1.20;;;;;;;;;;5088202;28;20051;-80
2021/07/08 16:10:04;;;;;;;3.35;1.30;;;;;;;;;;5080994;28;20048;-80
2021/07/08 16:12:32;;;;;;;2.00;1.00;;;;;;;;;;5075041;28;20127;-80
2021/07/08 16:15:00;;;;;;;1.27;0.98;;;;;;;;;;5076565;28;20055;-81
2021/07/08 16:17:30;;;;;;;5.88;1.23;;;;;;;;;;5074840;28;20087;-80
2021/07/08 16:19:58;;;;;;;5.00;1.40;;;;;;;;;;5072152;28;20052;-80